Time;durP1;ratioP1;P1;durP2;ratioP2;P2;SDS_P1;SDS_P2;PMS_P1;PMS_P2;Temp;Humidity;BMP_temperature;BMP_pressure;BME280_temperature;BME280_humidity;BME280_pressure;Samples;Min_cycle;Max_cycle;Signal;HPM_P1;HPM_P2
2022/09/04 00:02:47;;;;;;;1.33;1.23;;;22.80;55.20;;;;;;5031995;28;43489;-67
2022/09/04 00:05:34;;;;;;;1.48;1.25;;;22.80;55.30;;;;;;5018970;28;43493;-67
2022/09/04 00:08:16;;;;;;;1.30;1.20;;;22.80;55.30;;;;;;5021434;28;44758;-66
2022/09/04 00:11:02;;;;;;;1.40;1.30;;;22.80;55.30;;;;;;5020810;28;43514;-67
2022/09/04 00:13:47;;;;;;;1.50;1.40;;;22.80;55.40;;;;;;5022668;28;43480;-66
2022/09/04 00:16:15;;;;;;;0.98;0.98;;;22.80;55.30;;;;;;5022118;28;43554;-67
2022/09/04 00:19:03;;;;;;;1.33;1.00;;;22.80;55.30;;;;;;5024182;28;45250;-67
2022/09/04 00:22:09;;;;;;;1.63;1.30;;;22.80;55.20;;;;;;5033174;28;43994;-67
2022/09/04 00:24:41;;;;;;;1.42;1.30;;;22.80;55.40;;;;;;4993339;28;43475;-67
2022/09/04 00:27:20;;;;;;;1.10;1.00;;;22.80;55.30;;;;;;5024180;28;43443;-66
2022/09/04 00:30:05;;;;;;;1.48;1.38;;;22.80;55.30;;;;;;5034387;28;44988;-66
2022/09/04 00:32:44;;;;;;;1.50;1.40;;;22.70;55.10;;;;;;5027806;28;43959;-67
2022/09/04 00:35:35;;;;;;;1.38;1.27;;;22.70;55.40;;;;;;5024589;28;43514;-66
2022/09/04 00:38:16;;;;;;;1.50;1.10;;;22.70;55.30;;;;;;5014253;28;43472;-66
2022/09/04 00:40:52;;;;;;;1.20;1.20;;;22.70;55.20;;;;;;5024047;28;44950;-66
2022/09/04 00:43:28;;;;;;;1.40;1.30;;;22.70;55.30;;;;;;5024326;28;43939;-66
2022/09/04 00:46:44;;;;;;;1.20;1.13;;;22.70;55.40;;;;;;5024475;28;43443;-67
2022/09/04 00:49:17;;;;;;;2.00;1.20;;;22.70;55.40;;;;;;5031211;28;43500;-67
2022/09/04 00:52:02;;;;;;;1.10;1.10;;;22.70;55.20;;;;;;5026403;28;43783;-66
2022/09/04 00:55:00;;;;;;;1.30;1.20;;;22.70;55.30;;;;;;5031385;28;43387;-66
2022/09/04 00:58:04;;;;;;;1.10;1.10;;;22.70;55.30;;;;;;5017934;28;43474;-67
2022/09/04 01:00:32;;;;;;;1.38;1.27;;;22.70;55.20;;;;;;5023694;28;43994;-66
2022/09/04 01:03:11;;;;;;;1.33;1.30;;;22.70;55.50;;;;;;5024311;28;44101;-66
2022/09/04 01:06:03;;;;;;;1.38;1.27;;;22.70;55.40;;;;;;5024020;28;43523;-66
2022/09/04 01:08:54;;;;;;;1.05;1.05;;;22.70;55.50;;;;;;5031269;28;43470;-66
2022/09/04 01:11:28;;;;;;;;;;;22.70;55.80;;;;;;5021094;28;43466;-67
2022/09/04 01:14:22;;;;;;;1.30;1.20;;;22.60;55.70;;;;;;5020940;28;44967;-66
2022/09/04 01:17:26;;;;;;;1.50;1.40;;;22.60;55.70;;;;;;5004035;28;44298;-66
2022/09/04 01:20:31;;;;;;;1.27;1.17;;;22.60;55.50;;;;;;5007461;28;43507;-67
2022/09/04 01:23:01;;;;;;;1.05;1.05;;;22.60;55.40;;;;;;5023155;28;43462;-66
2022/09/04 01:25:51;;;;;;;1.40;1.10;;;22.60;55.70;;;;;;5023657;28;44984;-66
2022/09/04 01:28:30;;;;;;;1.20;1.20;;;22.60;55.60;;;;;;5024533;28;43720;-67
2022/09/04 01:31:10;;;;;;;1.40;1.30;;;22.60;55.70;;;;;;5021939;28;43468;-67
2022/09/04 01:33:45;;;;;;;1.40;1.30;;;22.60;55.70;;;;;;5017238;28;44155;-67
2022/09/04 01:37:00;;;;;;;1.40;1.30;;;22.60;55.70;;;;;;5027575;28;44820;-66
2022/09/04 01:39:30;;;;;;;1.08;1.08;;;22.60;55.70;;;;;;4996274;28;43549;-66
2022/09/04 01:42:46;;;;;;;1.45;1.15;;;22.50;55.60;;;;;;5023550;28;43409;-66
2022/09/04 01:45:37;;;;;;;1.20;1.20;;;22.60;55.70;;;;;;4973256;28;43506;-66
2022/09/04 01:48:06;;;;;;;1.20;1.10;;;22.60;55.70;;;;;;4974376;28;44230;-66
2022/09/04 01:50:37;;;;;;;1.38;1.27;;;22.50;55.70;;;;;;5000678;28;43636;-66
2022/09/04 01:53:25;;;;;;;1.40;1.30;;;22.50;55.70;;;;;;5027184;28;43457;-66
2022/09/04 01:55:52;;;;;;;1.30;1.20;;;22.50;55.70;;;;;;5027885;28;43428;-66
2022/09/04 01:59:07;;;;;;;1.35;1.25;;;22.50;55.90;;;;;;5022926;28;44964;-67
2022/09/04 02:01:51;;;;;;;1.02;1.00;;;22.50;56.50;;;;;;5019914;28;43659;-67
2022/09/04 02:04:24;;;;;;;1.38;1.27;;;22.50;55.90;;;;;;5015362;28;43397;-66
2022/09/04 02:07:29;;;;;;;1.30;1.20;;;22.50;55.70;;;;;;5035532;28;43418;-67
2022/09/04 02:10:06;;;;;;;1.50;1.40;;;22.50;55.80;;;;;;5021565;28;44060;-67
2022/09/04 02:12:41;;;;;;;1.58;1.20;;;22.50;56.00;;;;;;5025164;28;43428;-67
2022/09/04 02:15:17;;;;;;;1.58;1.30;;;22.50;56.00;;;;;;5023280;28;43460;-67
2022/09/04 02:17:47;;;;;;;1.33;1.23;;;22.40;55.80;;;;;;5022101;28;43546;-66
2022/09/04 02:20:24;;;;;;;1.45;1.35;;;22.50;55.90;;;;;;5022489;28;44038;-67
2022/09/04 02:23:14;;;;;;;1.38;1.27;;;22.50;55.80;;;;;;5022921;28;43527;-66
2022/09/04 02:26:27;;;;;;;1.45;1.38;;;22.50;55.90;;;;;;5022399;28;43516;-67
2022/09/04 02:29:11;;;;;;;1.90;1.50;;;22.50;55.90;;;;;;5017704;28;43480;-67
2022/09/04 02:32:00;;;;;;;1.30;1.20;;;22.40;56.00;;;;;;5024440;28;45008;-66
2022/09/04 02:34:38;;;;;;;1.30;1.20;;;22.40;56.00;;;;;;5025686;28;43725;-66
2022/09/04 02:37:36;;;;;;;1.33;1.10;;;22.40;56.00;;;;;;5022339;28;43392;-67
2022/09/04 02:40:17;;;;;;;1.50;1.40;;;22.40;56.10;;;;;;5015298;28;43495;-66
2022/09/04 02:43:00;;;;;;;2.13;1.50;;;22.40;56.00;;;;;;5021369;28;44312;-67
2022/09/04 02:45:35;;;;;;;1.23;1.10;;;22.40;56.00;;;;;;5022229;28;43826;-67
2022/09/04 02:48:22;;;;;;;2.25;1.30;;;22.40;55.90;;;;;;5022269;28;43465;-66
2022/09/04 02:51:12;;;;;;;1.35;1.27;;;22.40;56.00;;;;;;5029283;28;43419;-67
2022/09/04 02:53:49;;;;;;;1.60;1.50;;;22.40;56.10;;;;;;5031896;28;44293;-66
2022/09/04 02:56:47;;;;;;;1.25;1.10;;;22.40;56.10;;;;;;5022300;28;43664;-66
2022/09/04 02:59:35;;;;;;;1.35;1.25;;;22.40;56.20;;;;;;5012525;28;43575;-67
2022/09/04 03:02:07;;;;;;;1.40;1.30;;;22.40;56.20;;;;;;5022207;28;43401;-67
2022/09/04 03:04:34;;;;;;;1.55;1.30;;;22.30;56.10;;;;;;5022363;28;43967;-66
2022/09/04 03:07:23;;;;;;;1.58;1.27;;;22.30;56.20;;;;;;5021428;28;43483;-67
2022/09/04 03:09:59;;;;;;;1.40;1.27;;;22.30;56.10;;;;;;5021097;28;43427;-66
2022/09/04 03:12:50;;;;;;;1.40;1.30;;;22.30;56.20;;;;;;5025457;28;43535;-67
2022/09/04 03:15:43;;;;;;;1.40;1.30;;;22.30;56.20;;;;;;5009415;28;43774;-67
2022/09/04 03:18:25;;;;;;;1.80;1.70;;;22.30;56.20;;;;;;5020623;28;43974;-67
2022/09/04 03:21:05;;;;;;;1.38;1.27;;;22.30;56.20;;;;;;5017213;28;43557;-67
2022/09/04 03:23:54;;;;;;;1.40;1.30;;;22.30;56.20;;;;;;5022120;28;43479;-66
2022/09/04 03:26:34;;;;;;;3.08;1.30;;;22.30;56.20;;;;;;5030755;28;43848;-67
2022/09/04 03:29:13;;;;;;;1.20;1.20;;;22.30;56.20;;;;;;5017579;28;43443;-66
2022/09/04 03:32:03;;;;;;;1.30;1.20;;;22.30;56.30;;;;;;5021689;28;43479;-67
2022/09/04 03:34:46;;;;;;;1.15;1.15;;;22.30;56.30;;;;;;5032082;28;43483;-68
2022/09/04 03:37:56;;;;;;;2.00;1.38;;;22.30;56.30;;;;;;5021472;28;43759;-66
2022/09/04 03:40:45;;;;;;;1.38;1.27;;;22.30;56.20;;;;;;5011613;28;43978;-67
2022/09/04 03:43:31;;;;;;;1.13;1.10;;;22.20;56.30;;;;;;5021694;28;43485;-66
2022/09/04 03:45:58;;;;;;;1.20;1.20;;;22.20;56.40;;;;;;5029087;28;43512;-67
2022/09/04 03:48:51;;;;;;;1.30;1.20;;;22.20;56.40;;;;;;5024678;28;44962;-66
2022/09/04 03:51:40;;;;;;;1.38;1.23;;;22.20;56.40;;;;;;5023907;28;43943;-67
2022/09/04 03:54:23;;;;;;;1.77;1.30;;;22.20;56.30;;;;;;5033386;28;43444;-66
2022/09/04 03:56:59;;;;;;;1.30;1.20;;;22.20;56.30;;;;;;5025146;28;43603;-67
2022/09/04 04:00:10;;;;;;;1.63;1.40;;;22.20;56.30;;;;;;5025325;28;43795;-67
2022/09/04 04:02:59;;;;;;;1.42;1.33;;;22.20;56.40;;;;;;5010323;28;43367;-67
2022/09/04 04:05:47;;;;;;;1.40;1.30;;;22.20;56.50;;;;;;5025497;28;43459;-66
2022/09/04 04:08:40;;;;;;;1.58;1.38;;;22.20;56.50;;;;;;5023266;28;43467;-66
2022/09/04 04:11:55;;;;;;;1.17;1.17;;;22.10;56.40;;;;;;5024502;28;44981;-66
2022/09/04 04:15:06;;;;;;;1.50;1.40;;;22.20;56.50;;;;;;5018204;28;44011;-67
2022/09/04 04:17:46;;;;;;;;;;;22.10;56.40;;;;;;5005501;28;43483;-66
2022/09/04 04:20:25;;;;;;;1.20;1.20;;;22.10;56.50;;;;;;5024828;28;43467;-66
2022/09/04 04:23:04;;;;;;;1.50;1.40;;;22.10;56.60;;;;;;5025252;28;44076;-67
2022/09/04 04:25:34;;;;;;;1.30;1.20;;;22.10;56.60;;;;;;5024669;28;43867;-66
2022/09/04 04:28:32;;;;;;;1.55;1.30;;;22.10;56.50;;;;;;5025116;28;43493;-66
2022/09/04 04:31:35;;;;;;;1.30;1.20;;;22.10;56.50;;;;;;5024452;28;43459;-66
2022/09/04 04:34:18;;;;;;;1.40;1.30;;;22.10;56.50;;;;;;5024287;28;44100;-66
2022/09/04 04:37:07;;;;;;;1.50;1.40;;;22.10;56.50;;;;;;5024669;28;43440;-66
2022/09/04 04:39:55;;;;;;;1.75;1.38;;;22.10;56.50;;;;;;5034563;28;43439;-66
2022/09/04 04:42:52;;;;;;;1.58;1.48;;;22.10;56.50;;;;;;5024776;28;43555;-66
2022/09/04 04:45:50;;;;;;;1.40;1.30;;;22.10;56.50;;;;;;5024041;28;44729;-66
2022/09/04 04:49:03;;;;;;;1.63;1.52;;;22.00;56.50;;;;;;5023959;28;43479;-66
2022/09/04 04:51:59;;;;;;;1.58;1.48;;;22.00;56.50;;;;;;5018186;28;43978;-66
2022/09/04 04:54:51;;;;;;;1.27;1.17;;;22.00;56.50;;;;;;5029623;28;43590;-66
2022/09/04 04:57:25;;;;;;;1.40;1.30;;;22.00;56.50;;;;;;5039399;28;44774;-66
2022/09/04 05:00:05;;;;;;;1.38;1.27;;;22.00;56.60;;;;;;5035331;28;43408;-66
2022/09/04 05:03:07;;;;;;;1.27;1.23;;;22.00;56.70;;;;;;5024470;28;43416;-66
2022/09/04 05:06:01;;;;;;;1.40;1.30;;;22.00;56.60;;;;;;5008990;28;43520;-66
2022/09/04 05:08:50;;;;;;;1.40;1.30;;;22.00;56.80;;;;;;5023237;28;43791;-66
2022/09/04 05:12:05;;;;;;;1.58;1.38;;;22.00;56.70;;;;;;5017194;28;43977;-66
2022/09/04 05:14:44;;;;;;;1.40;1.30;;;22.00;56.70;;;;;;4994876;28;43551;-66
2022/09/04 05:18:00;;;;;;;1.20;1.10;;;22.00;56.80;;;;;;5013137;28;43439;-66
2022/09/04 05:20:58;;;;;;;1.50;1.40;;;22.00;56.80;;;;;;5003659;28;43872;-66
2022/09/04 05:23:38;;;;;;;1.52;1.42;;;22.00;56.90;;;;;;5025337;28;43758;-66
2022/09/04 05:26:17;;;;;;;1.42;1.33;;;21.90;56.90;;;;;;5024079;28;43407;-66
2022/09/04 05:29:06;;;;;;;1.38;1.27;;;21.90;56.80;;;;;;5032925;28;43640;-66
2022/09/04 05:31:57;;;;;;;1.52;1.42;;;21.90;56.90;;;;;;5018611;28;43820;-66
2022/09/04 05:34:42;;;;;;;1.70;1.60;;;21.90;56.80;;;;;;5022094;28;44174;-66
2022/09/04 05:37:20;;;;;;;1.33;1.30;;;21.90;56.90;;;;;;5023567;28;43494;-66
2022/09/04 05:40:16;;;;;;;1.55;1.45;;;21.90;57.00;;;;;;5028765;28;43431;-66
2022/09/04 05:43:03;;;;;;;2.10;1.30;;;21.90;56.90;;;;;;4999336;28;43801;-66
2022/09/04 05:45:42;;;;;;;1.50;1.40;;;21.90;56.80;;;;;;5022968;28;43972;-66
2022/09/04 05:48:15;;;;;;;1.95;1.35;;;21.90;56.90;;;;;;5022625;28;43793;-66
2022/09/04 05:50:53;;;;;;;1.60;1.50;;;21.90;57.00;;;;;;5023711;28;43579;-66
2022/09/04 05:53:45;;;;;;;1.30;1.20;;;21.90;56.90;;;;;;5026492;28;44724;-66
2022/09/04 05:56:20;;;;;;;1.40;1.30;;;21.90;56.90;;;;;;5022855;28;43432;-66
2022/09/04 05:59:14;;;;;;;1.25;1.20;;;21.90;56.90;;;;;;5024221;28;43448;-66
2022/09/04 06:02:02;;;;;;;1.55;1.45;;;21.90;57.00;;;;;;5019757;28;43468;-66
2022/09/04 06:04:54;;;;;;;1.55;1.40;;;21.90;56.90;;;;;;5017160;28;44771;-66
2022/09/04 06:08:03;;;;;;;1.48;1.38;;;21.80;56.90;;;;;;5023037;28;43705;-66
2022/09/04 06:11:12;;;;;;;1.63;1.52;;;21.80;57.00;;;;;;5014925;28;43407;-66
2022/09/04 06:13:48;;;;;;;1.60;1.50;;;21.80;56.90;;;;;;5012410;28;43591;-66
2022/09/04 06:16:34;;;;;;;1.45;1.35;;;21.80;56.90;;;;;;5022185;28;44616;-66
2022/09/04 06:19:17;;;;;;;1.60;1.50;;;21.80;56.90;;;;;;5021391;28;43502;-65
2022/09/04 06:22:00;;;;;;;1.30;1.20;;;21.80;56.90;;;;;;5026793;28;43429;-66
2022/09/04 06:24:52;;;;;;;1.40;1.30;;;21.80;56.90;;;;;;5024956;28;44573;-66
2022/09/04 06:27:37;;;;;;;1.55;1.45;;;21.80;56.80;;;;;;5021161;28;44022;-66
2022/09/04 06:30:10;;;;;;;1.60;1.50;;;21.80;56.80;;;;;;5021894;28;43528;-66
2022/09/04 06:32:40;;;;;;;1.70;1.60;;;21.80;57.00;;;;;;5023304;28;43410;-66
2022/09/04 06:35:25;;;;;;;1.50;1.40;;;21.80;57.00;;;;;;5023782;28;43570;-66
2022/09/04 06:38:24;;;;;;;1.30;1.20;;;21.80;57.50;;;;;;5022385;28;44653;-66
2022/09/04 06:41:13;;;;;;;;;;;21.80;56.90;;;;;;5024597;28;43449;-66
2022/09/04 06:44:06;;;;;;;1.55;1.45;;;21.80;57.00;;;;;;5023820;28;43480;-65
2022/09/04 06:46:54;;;;;;;1.27;1.17;;;21.80;57.00;;;;;;5017537;28;43471;-66
2022/09/04 06:49:37;;;;;;;1.42;1.33;;;21.70;56.90;;;;;;5022566;28;44817;-65
2022/09/04 06:52:06;;;;;;;1.42;1.33;;;21.70;57.00;;;;;;5024488;28;43408;-66
2022/09/04 06:54:39;;;;;;;1.50;1.40;;;21.70;57.00;;;;;;5026417;28;43380;-66
2022/09/04 06:57:07;;;;;;;2.63;1.48;;;21.70;57.00;;;;;;5024068;28;43677;-66
2022/09/04 06:59:53;;;;;;;2.15;1.50;;;21.70;56.90;;;;;;5027126;28;44048;-68
2022/09/04 07:02:27;;;;;;;1.35;1.30;;;21.70;56.90;;;;;;5022174;28;44000;-67
2022/09/04 07:04:58;;;;;;;1.55;1.45;;;21.70;57.00;;;;;;5022661;28;43415;-67
2022/09/04 07:07:35;;;;;;;1.63;1.52;;;21.80;57.00;;;;;;5022377;28;43463;-67
2022/09/04 07:10:09;;;;;;;1.65;1.50;;;21.80;57.10;;;;;;5026091;28;45077;-66
2022/09/04 07:12:48;;;;;;;1.65;1.55;;;21.70;57.00;;;;;;5024797;28;43676;-68
2022/09/04 07:15:46;;;;;;;1.40;1.30;;;21.70;57.00;;;;;;5022306;28;43470;-67
2022/09/04 07:18:48;;;;;;;1.40;1.30;;;21.70;57.00;;;;;;5029484;28;43367;-67
2022/09/04 07:21:58;;;;;;;1.83;1.70;;;21.70;57.00;;;;;;5020135;28;44728;-67
2022/09/04 07:24:43;;;;;;;1.50;1.40;;;21.80;57.10;;;;;;5021079;28;43859;-67
2022/09/04 07:27:36;;;;;;;1.30;1.30;;;21.80;57.10;;;;;;5028403;28;43415;-68
2022/09/04 07:30:07;;;;;;;1.52;1.42;;;21.70;57.10;;;;;;5021507;28;44002;-66
2022/09/04 07:32:55;;;;;;;1.70;1.60;;;21.70;57.00;;;;;;5024586;28;44795;-67
2022/09/04 07:35:41;;;;;;;1.40;1.30;;;21.80;57.10;;;;;;5027542;28;43455;-67
2022/09/04 07:38:20;;;;;;;3.78;1.50;;;21.80;57.10;;;;;;5022267;28;43452;-67
2022/09/04 07:41:18;;;;;;;1.33;1.17;;;21.70;57.00;;;;;;5021500;28;43612;-67
2022/09/04 07:44:09;;;;;;;1.40;1.30;;;21.80;57.00;;;;;;5015919;28;45004;-67
2022/09/04 07:46:40;;;;;;;;;;;21.80;57.00;;;;;;4991673;28;43476;-66
2022/09/04 07:49:30;;;;;;;1.63;1.40;;;21.70;57.00;;;;;;5021376;28;43407;-67
2022/09/04 07:52:10;;;;;;;2.40;1.67;;;21.80;57.10;;;;;;5025051;28;43449;-67
2022/09/04 07:54:46;;;;;;;1.40;1.30;;;21.80;57.10;;;;;;5021386;28;44709;-66
2022/09/04 07:57:43;;;;;;;1.60;1.50;;;21.70;57.10;;;;;;5025647;28;43408;-67
2022/09/04 08:00:24;;;;;;;1.85;1.40;;;21.80;57.10;;;;;;5013698;28;43638;-66
2022/09/04 08:03:35;;;;;;;1.60;1.50;;;21.80;57.20;;;;;;5021530;28;43508;-66
2022/09/04 08:06:36;;;;;;;1.60;1.50;;;21.80;57.30;;;;;;4954737;28;43798;-66
2022/09/04 08:09:17;;;;;;;1.70;1.60;;;21.80;57.20;;;;;;5020789;28;43934;-67
2022/09/04 08:12:03;;;;;;;1.50;1.40;;;21.80;57.20;;;;;;5022731;28;43498;-66
2022/09/04 08:14:44;;;;;;;1.60;1.50;;;21.80;57.20;;;;;;5017334;28;43527;-67
2022/09/04 08:17:19;;;;;;;;;;;21.80;57.10;;;;;;5020407;28;44712;-66
2022/09/04 08:19:56;;;;;;;1.92;1.50;;;21.80;57.10;;;;;;5020927;28;43808;-66
2022/09/04 08:22:47;;;;;;;1.98;1.77;;;21.80;57.10;;;;;;5020992;28;43458;-66
2022/09/04 08:25:32;;;;;;;1.63;1.52;;;21.80;57.00;;;;;;5030214;28;43527;-66
2022/09/04 08:28:23;;;;;;;1.73;1.58;;;21.80;57.00;;;;;;5019843;28;45304;-67
2022/09/04 08:30:51;;;;;;;;;;;21.80;57.00;;;;;;5020945;28;43937;-67
2022/09/04 08:33:27;;;;;;;1.63;1.50;;;21.80;56.90;;;;;;5022543;28;43496;-67
2022/09/04 08:36:34;;;;;;;2.47;1.48;;;21.80;56.90;;;;;;5023407;28;43546;-67
2022/09/04 08:39:17;;;;;;;1.63;1.50;;;21.90;56.90;;;;;;4989030;28;45002;-67
2022/09/04 08:42:18;;;;;;;2.42;1.70;;;21.90;56.80;;;;;;5017948;28;44349;-68
2022/09/04 08:45:05;;;;;;;1.40;1.30;;;21.90;56.80;;;;;;5024361;28;43464;-67
2022/09/04 08:47:52;;;;;;;1.60;1.50;;;21.90;56.90;;;;;;5008008;28;43491;-67
2022/09/04 08:50:22;;;;;;;1.83;1.67;;;21.90;56.70;;;;;;5021377;28;44041;-67
2022/09/04 08:53:02;;;;;;;2.10;1.70;;;21.90;56.70;;;;;;5034813;28;43471;-67
2022/09/04 08:55:33;;;;;;;1.50;1.40;;;21.90;56.70;;;;;;5011546;28;43362;-66
2022/09/04 08:58:22;;;;;;;1.67;1.57;;;21.90;56.70;;;;;;5033417;28;43504;-66
2022/09/04 09:01:03;;;;;;;1.70;1.60;;;21.90;56.80;;;;;;5023592;28;44683;-67
2022/09/04 09:03:43;;;;;;;1.52;1.42;;;22.00;56.90;;;;;;5023976;28;43416;-67
2022/09/04 09:06:41;;;;;;;2.13;1.35;;;22.00;56.90;;;;;;5023556;28;43404;-66
2022/09/04 09:09:38;;;;;;;2.60;1.65;;;22.00;56.90;;;;;;5011724;28;43467;-67
2022/09/04 09:12:35;;;;;;;1.42;1.30;;;21.90;56.80;;;;;;4990872;28;44711;-67
2022/09/04 09:15:08;;;;;;;1.70;1.60;;;22.00;56.90;;;;;;5012573;28;44104;-67
2022/09/04 09:17:59;;;;;;;2.45;1.45;;;22.00;56.70;;;;;;5024073;28;43545;-67
2022/09/04 09:20:42;;;;;;;;;;;22.00;56.80;;;;;;5015234;28;43636;-67
2022/09/04 09:23:40;;;;;;;1.60;1.50;;;22.00;57.00;;;;;;5023800;28;44724;-67
2022/09/04 09:26:16;;;;;;;1.50;1.40;;;22.00;56.50;;;;;;5022806;28;43942;-66
2022/09/04 09:28:50;;;;;;;1.92;1.50;;;22.00;56.90;;;;;;5017105;28;43474;-66
2022/09/04 09:31:41;;;;;;;1.58;1.48;;;22.00;56.80;;;;;;5022939;28;43536;-67
2022/09/04 09:34:27;;;;;;;1.60;1.50;;;22.00;56.80;;;;;;5034346;28;43784;-66
2022/09/04 09:37:01;;;;;;;1.60;1.50;;;22.10;56.40;;;;;;5017887;28;43980;-67
2022/09/04 09:40:12;;;;;;;2.35;1.52;;;22.10;56.70;;;;;;5023181;28;43506;-67
2022/09/04 09:42:40;;;;;;;1.55;1.45;;;22.10;56.40;;;;;;5011298;28;43748;-67
2022/09/04 09:45:26;;;;;;;1.63;1.52;;;22.10;56.20;;;;;;5023237;28;45001;-67
2022/09/04 09:48:11;;;;;;;1.70;1.60;;;22.10;56.00;;;;;;5022279;28;43455;-67
2022/09/04 09:51:02;;;;;;;3.67;2.28;;;22.10;56.20;;;;;;5010271;28;43487;-67
2022/09/04 09:53:38;;;;;;;1.95;1.75;;;22.10;56.20;;;;;;5025920;28;43603;-65
2022/09/04 09:56:19;;;;;;;1.70;1.60;;;22.10;56.30;;;;;;5029488;28;43969;-64
2022/09/04 09:59:04;;;;;;;1.63;1.52;;;22.10;56.20;;;;;;5024543;28;43524;-64
2022/09/04 10:02:09;;;;;;;1.60;1.50;;;22.20;56.20;;;;;;5022750;28;43495;-64
2022/09/04 10:05:04;;;;;;;2.38;1.70;;;22.20;56.20;;;;;;5018006;28;43516;-64
2022/09/04 10:07:50;;;;;;;2.38;1.88;;;22.20;56.20;;;;;;5023127;28;44000;-64
2022/09/04 10:10:28;;;;;;;1.70;1.60;;;22.20;56.10;;;;;;5009883;28;43937;-64
2022/09/04 10:13:32;;;;;;;1.77;1.67;;;22.20;56.20;;;;;;5026693;28;43531;-65
2022/09/04 10:16:33;;;;;;;1.75;1.65;;;22.30;56.10;;;;;;5017958;28;43491;-65
2022/09/04 10:19:45;;;;;;;1.70;1.60;;;22.30;56.10;;;;;;5022770;28;44024;-64
2022/09/04 10:22:34;;;;;;;2.65;1.88;;;22.30;56.10;;;;;;5014997;28;43486;-64
2022/09/04 10:25:44;;;;;;;2.95;1.80;;;22.20;56.00;;;;;;5026444;28;43406;-64
2022/09/04 10:28:33;;;;;;;2.63;1.77;;;22.30;56.10;;;;;;5011518;28;43587;-65
2022/09/04 10:31:17;;;;;;;2.33;1.77;;;22.30;56.10;;;;;;5021239;28;44145;-65
2022/09/04 10:34:15;;;;;;;1.83;1.70;;;22.30;56.10;;;;;;5020628;28;43961;-64
2022/09/04 10:36:54;;;;;;;1.98;1.60;;;22.40;56.20;;;;;;5017712;28;43483;-64
2022/09/04 10:42:43;;;;;;;1.70;1.60;;;22.40;56.10;;;;;;5022576;28;43936;-65
2022/09/04 10:45:31;;;;;;;2.17;1.67;;;22.40;56.00;;;;;;5022045;28;43432;-64
2022/09/04 10:48:17;;;;;;;1.85;1.75;;;22.40;55.90;;;;;;5022049;28;43384;-64
2022/09/04 10:51:22;;;;;;;1.60;1.50;;;22.40;56.00;;;;;;5030065;28;43425;-64
2022/09/04 10:54:29;;;;;;;1.92;1.70;;;22.40;56.00;;;;;;5032544;28;43833;-64
2022/09/04 10:57:17;;;;;;;1.70;1.60;;;22.50;55.90;;;;;;5023562;28;43684;-64
2022/09/04 11:00:04;;;;;;;2.03;1.70;;;22.50;55.90;;;;;;5026466;28;43461;-64
2022/09/04 11:02:53;;;;;;;2.42;1.83;;;22.50;55.90;;;;;;5022640;28;43547;-65
2022/09/04 11:05:40;;;;;;;1.83;1.63;;;22.50;56.10;;;;;;5009483;28;43810;-64
2022/09/04 11:08:40;;;;;;;2.15;1.95;;;22.50;55.80;;;;;;5022170;28;44129;-64
2022/09/04 11:11:26;;;;;;;1.80;1.70;;;22.50;55.70;;;;;;5016659;28;43453;-64
2022/09/04 11:14:04;;;;;;;2.00;1.90;;;22.60;56.30;;;;;;5025333;28;43567;-65
2022/09/04 11:17:20;;;;;;;2.45;1.70;;;22.60;56.20;;;;;;5022581;28;44830;-64
2022/09/04 11:20:11;;;;;;;3.13;1.90;;;22.60;56.10;;;;;;4993240;28;43961;-64
2022/09/04 11:23:05;;;;;;;2.13;1.88;;;22.60;55.80;;;;;;5024214;28;43428;-64
2022/09/04 11:25:52;;;;;;;2.25;2.00;;;22.70;56.10;;;;;;5030479;28;43553;-64
2022/09/04 11:28:55;;;;;;;2.63;1.95;;;22.70;55.90;;;;;;5026695;28;44665;-64
2022/09/04 11:31:32;;;;;;;3.53;2.10;;;22.70;55.80;;;;;;5023464;28;43411;-64
2022/09/04 11:34:35;;;;;;;2.33;1.50;;;22.70;55.90;;;;;;5020811;28;43421;-63
2022/09/04 11:37:05;;;;;;;2.15;1.70;;;22.70;56.10;;;;;;5017110;28;43448;-64
2022/09/04 11:40:31;;;;;;;1.95;1.70;;;22.70;55.80;;;;;;5020708;28;44235;-64
2022/09/04 11:43:29;;;;;;;2.40;2.00;;;22.80;56.00;;;;;;4950754;28;44042;-64
2022/09/04 11:46:13;;;;;;;2.13;1.92;;;22.80;55.80;;;;;;5027794;28;43455;-64
2022/09/04 11:49:00;;;;;;;1.85;1.65;;;22.80;55.80;;;;;;5021604;28;43482;-64
2022/09/04 11:51:46;;;;;;;1.90;1.70;;;22.80;55.70;;;;;;5021451;28;44953;-65
2022/09/04 11:54:39;;;;;;;2.75;1.75;;;22.90;55.80;;;;;;5021104;28;43430;-64
2022/09/04 11:57:27;;;;;;;2.95;1.90;;;22.90;55.80;;;;;;5026143;28;43418;-63
2022/09/04 11:59:58;;;;;;;2.03;1.55;;;22.90;55.70;;;;;;5022919;28;43478;-64
2022/09/04 12:02:31;;;;;;;1.52;1.42;;;22.90;55.80;;;;;;5020962;28;44985;-64
2022/09/04 12:05:16;;;;;;;2.28;1.83;;;22.90;55.80;;;;;;5021922;28;43463;-64
2022/09/04 12:08:06;;;;;;;1.90;1.80;;;22.90;55.80;;;;;;5021145;28;43506;-64
2022/09/04 12:11:12;;;;;;;2.35;1.83;;;23.00;55.80;;;;;;5020405;28;43526;-64
2022/09/04 12:14:13;;;;;;;2.05;1.85;;;23.00;55.80;;;;;;5026440;28;44054;-64
2022/09/04 12:17:04;;;;;;;2.28;1.80;;;23.10;55.70;;;;;;5027665;28;43510;-63
2022/09/04 12:20:13;;;;;;;2.10;2.00;;;23.10;56.00;;;;;;5024615;28;43644;-63
2022/09/04 12:23:07;;;;;;;2.13;1.97;;;23.00;56.00;;;;;;5004233;28;43441;-64
2022/09/04 12:25:48;;;;;;;2.50;1.90;;;23.10;56.00;;;;;;5024513;28;44997;-64
2022/09/04 12:28:43;;;;;;;2.78;1.90;;;23.10;55.70;;;;;;5014238;28;43878;-64
2022/09/04 12:31:32;;;;;;;1.80;1.70;;;23.10;55.80;;;;;;5023938;28;43556;-64
2022/09/04 12:34:06;;;;;;;2.00;1.80;;;23.10;56.00;;;;;;5032794;28;43602;-64
2022/09/04 12:36:50;;;;;;;2.10;1.80;;;23.20;56.00;;;;;;5024026;28;44986;-64
2022/09/04 12:39:46;;;;;;;2.50;1.67;;;23.20;56.00;;;;;;5024066;28;43693;-63
2022/09/04 12:42:37;;;;;;;1.70;1.60;;;23.20;56.00;;;;;;5024540;28;44048;-64
2022/09/04 12:45:20;;;;;;;2.63;1.83;;;23.20;56.00;;;;;;5024428;28;43489;-64
2022/09/04 12:48:12;;;;;;;1.85;1.70;;;23.20;56.10;;;;;;5030130;28;44891;-64
2022/09/04 12:50:56;;;;;;;1.90;1.80;;;23.30;56.10;;;;;;5023230;28;43545;-64
2022/09/04 12:53:36;;;;;;;2.13;1.92;;;23.30;56.00;;;;;;5028047;28;43558;-64
2022/09/04 12:56:11;;;;;;;1.70;1.60;;;23.30;56.10;;;;;;5024420;28;43465;-64
2022/09/04 12:59:08;;;;;;;1.60;1.50;;;23.30;56.00;;;;;;5033736;28;44723;-64
2022/09/04 13:01:42;;;;;;;1.63;1.52;;;23.30;56.00;;;;;;5021430;28;43481;-64
2022/09/04 13:04:21;;;;;;;2.00;1.80;;;23.40;55.90;;;;;;5023763;28;43475;-64
2022/09/04 13:07:30;;;;;;;2.53;1.60;;;23.40;55.90;;;;;;5024645;28;43450;-64
2022/09/04 13:10:36;;;;;;;1.80;1.70;;;23.40;55.80;;;;;;5023181;28;44329;-63
2022/09/04 13:13:09;;;;;;;1.58;1.48;;;23.50;55.90;;;;;;5025061;28;43997;-64
2022/09/04 13:16:01;;;;;;;1.85;1.50;;;23.50;55.80;;;;;;5023960;28;43428;-64
2022/09/04 13:18:39;;;;;;;2.05;1.70;;;23.50;55.70;;;;;;5029781;28;43555;-64
2022/09/04 13:21:19;;;;;;;1.92;1.63;;;23.50;55.90;;;;;;5023430;28;44232;-64
2022/09/04 13:24:26;;;;;;;1.73;1.63;;;23.50;55.90;;;;;;5022578;28;43986;-64
2022/09/04 13:27:06;;;;;;;2.08;1.88;;;23.50;55.70;;;;;;5021133;28;43531;-64
2022/09/04 13:30:06;;;;;;;1.70;1.60;;;23.60;55.90;;;;;;5020442;28;43387;-63
2022/09/04 13:32:34;;;;;;;1.50;1.40;;;23.60;55.90;;;;;;5024416;28;44902;-64
2022/09/04 13:35:23;;;;;;;1.70;1.60;;;23.60;56.00;;;;;;5023821;28;43976;-64
2022/09/04 13:38:14;;;;;;;1.88;1.50;;;23.60;55.80;;;;;;5030272;28;43431;-63
2022/09/04 13:41:11;;;;;;;1.70;1.45;;;23.70;55.90;;;;;;5021008;28;43534;-64
2022/09/04 13:44:03;;;;;;;2.20;1.70;;;23.70;55.90;;;;;;5023653;28;44993;-64
2022/09/04 13:46:39;;;;;;;1.95;1.75;;;23.70;55.90;;;;;;5016323;28;43677;-65
2022/09/04 13:49:31;;;;;;;1.58;1.48;;;23.70;55.90;;;;;;5026197;28;43443;-64
2022/09/04 13:52:11;;;;;;;2.90;1.83;;;23.70;56.00;;;;;;5025297;28;43579;-64
2022/09/04 13:54:45;;;;;;;1.67;1.57;;;23.80;56.00;;;;;;5022683;28;45001;-64
2022/09/04 13:57:17;;;;;;;1.85;1.70;;;23.80;55.90;;;;;;5028225;28;43531;-65
2022/09/04 13:59:48;;;;;;;1.77;1.67;;;23.80;56.00;;;;;;5024805;28;43454;-64
2022/09/04 14:02:23;;;;;;;1.70;1.60;;;23.80;56.00;;;;;;5019850;28;43567;-64
2022/09/04 14:05:13;;;;;;;1.30;1.30;;;23.80;56.00;;;;;;5020243;28;44982;-64
2022/09/04 14:07:43;;;;;;;2.45;1.65;;;23.80;55.90;;;;;;5022396;28;43453;-64
2022/09/04 14:10:30;;;;;;;1.52;1.42;;;23.90;56.00;;;;;;5017467;28;43485;-64
2022/09/04 14:13:14;;;;;;;1.45;1.35;;;23.90;56.00;;;;;;5023391;28;43464;-65
2022/09/04 14:16:00;;;;;;;1.70;1.60;;;23.90;56.00;;;;;;5022405;28;44066;-65
2022/09/04 14:18:47;;;;;;;1.70;1.60;;;23.90;55.90;;;;;;5023243;28;43798;-64
2022/09/04 14:21:46;;;;;;;1.80;1.70;;;23.90;55.90;;;;;;5022463;28;43466;-65
2022/09/04 14:24:31;;;;;;;1.40;1.30;;;23.90;55.90;;;;;;5019794;28;43510;-65
2022/09/04 14:27:22;;;;;;;1.80;1.70;;;23.90;56.00;;;;;;5023372;28;45324;-65
2022/09/04 14:30:21;;;;;;;1.80;1.70;;;23.90;55.90;;;;;;5011349;28;43712;-64
2022/09/04 14:32:56;;;;;;;2.20;1.50;;;23.90;56.50;;;;;;5018662;28;43397;-65
2022/09/04 14:35:45;;;;;;;1.60;1.50;;;23.90;55.70;;;;;;5026038;28;43558;-64